createdAt,value
2018-04-22T00:00:58.118Z,10.79
2018-04-22T00:01:58.110Z,10.84
2018-04-22T00:02:58.112Z,10.76
2018-04-22T00:03:58.110Z,10.84
2018-04-22T00:04:58.177Z,10.81
2018-04-22T00:05:58.106Z,10.78
2018-04-22T00:06:58.101Z,10.74
2018-04-22T00:07:58.107Z,10.74
2018-04-22T00:08:58.103Z,10.70
2018-04-22T00:09:58.093Z,10.55
2018-04-22T00:10:58.094Z,10.59
2018-04-22T00:11:58.091Z,10.59
2018-04-22T00:12:58.080Z,10.55
2018-04-22T00:13:58.083Z,10.61
2018-04-22T00:14:58.081Z,10.59
2018-04-22T00:15:58.079Z,10.53
2018-04-22T00:16:58.076Z,10.60
2018-04-22T00:17:58.074Z,10.55
2018-04-22T00:18:58.073Z,10.52
2018-04-22T00:19:58.070Z,10.51
2018-04-22T00:20:58.066Z,10.60
2018-04-22T00:21:58.063Z,10.55
2018-04-22T00:22:58.063Z,10.53
2018-04-22T00:23:58.058Z,10.59
2018-04-22T00:24:58.054Z,10.53
2018-04-22T00:25:58.054Z,10.60
2018-04-22T00:26:58.047Z,10.53
2018-04-22T00:27:58.048Z,10.61
2018-04-22T00:28:58.045Z,10.51
2018-04-22T00:29:58.041Z,10.52
2018-04-22T00:30:58.047Z,10.41
2018-04-22T00:31:58.040Z,10.51
2018-04-22T00:32:58.035Z,10.40
2018-04-22T00:33:58.034Z,10.44
2018-04-22T00:34:58.029Z,10.48
2018-04-22T00:35:58.026Z,10.44
2018-04-22T00:36:58.028Z,10.41
2018-04-22T00:37:58.024Z,10.41
2018-04-22T00:38:58.019Z,10.42
2018-04-22T00:39:58.024Z,10.32
2018-04-22T00:40:58.011Z,10.30
2018-04-22T00:41:58.020Z,10.29
2018-04-22T00:42:58.007Z,10.25
2018-04-22T00:43:58.006Z,10.33
2018-04-22T00:44:58.001Z,10.34
2018-04-22T00:45:57.997Z,10.26
2018-04-22T00:46:57.996Z,10.14
2018-04-22T00:47:57.993Z,10.15
2018-04-22T00:48:57.992Z,10.18
2018-04-22T00:49:57.991Z,10.20
2018-04-22T00:50:57.987Z,10.22
2018-04-22T00:51:57.983Z,10.25
2018-04-22T00:52:57.989Z,10.23
2018-04-22T00:53:57.980Z,10.23
2018-04-22T00:54:57.976Z,10.23
2018-04-22T00:55:57.974Z,10.20
2018-04-22T00:56:57.967Z,10.18
2018-04-22T00:57:57.968Z,10.07
2018-04-22T00:58:57.966Z,10.14
2018-04-22T00:59:57.960Z,10.11
2018-04-22T01:00:57.965Z,10.12
2018-04-22T01:01:57.955Z,10.17
2018-04-22T01:02:57.954Z,10.05
2018-04-22T01:03:57.960Z,10.01
2018-04-22T01:04:57.947Z,9.94
2018-04-22T01:05:57.951Z,10.04
2018-04-22T01:06:57.943Z,10.01
2018-04-22T01:07:57.941Z,9.99
2018-04-22T01:08:57.935Z,10.05
2018-04-22T01:09:57.948Z,10.02
2018-04-22T01:10:57.931Z,9.99
2018-04-22T01:11:57.931Z,9.94
2018-04-22T01:12:57.923Z,9.93
2018-04-22T01:13:57.924Z,9.99
2018-04-22T01:14:57.919Z,9.93
2018-04-22T01:15:57.923Z,9.89
2018-04-22T01:16:57.916Z,9.86
2018-04-22T01:17:57.911Z,9.84
2018-04-22T01:18:57.906Z,9.86
2018-04-22T01:19:57.905Z,9.91
2018-04-22T01:20:57.908Z,9.86
2018-04-22T01:21:57.902Z,9.89
2018-04-22T01:22:57.895Z,9.79
2018-04-22T01:23:57.893Z,9.83
2018-04-22T01:24:57.899Z,9.76
2018-04-22T01:25:57.889Z,9.76
2018-04-22T01:26:57.888Z,9.74
2018-04-22T01:27:57.888Z,9.71
2018-04-22T01:28:57.875Z,9.76
2018-04-22T01:29:57.880Z,9.74
2018-04-22T01:30:57.870Z,9.76
2018-04-22T01:31:57.869Z,9.75
2018-04-22T01:32:57.872Z,9.79
2018-04-22T01:33:57.866Z,9.76
2018-04-22T01:34:57.866Z,9.69
2018-04-22T01:35:57.861Z,9.72
2018-04-22T01:36:57.856Z,9.68
2018-04-22T01:37:57.854Z,9.69
2018-04-22T01:38:57.859Z,9.60
2018-04-22T01:39:57.848Z,9.71
2018-04-22T01:40:57.846Z,9.60
2018-04-22T01:41:57.839Z,9.58
2018-04-22T01:42:57.842Z,9.60
2018-04-22T01:43:57.835Z,9.54
2018-04-22T01:44:57.833Z,9.51
2018-04-22T01:45:57.829Z,9.50
2018-04-22T01:46:57.831Z,9.58
2018-04-22T01:47:57.822Z,9.60
2018-04-22T01:48:57.817Z,9.53
2018-04-22T01:49:57.813Z,9.53
2018-04-22T01:50:57.814Z,9.57
2018-04-22T01:51:57.808Z,9.58
2018-04-22T01:52:57.805Z,9.50
2018-04-22T01:53:57.799Z,9.43
2018-04-22T01:54:57.797Z,9.48
2018-04-22T01:55:57.803Z,9.46
2018-04-22T01:56:57.792Z,9.40
2018-04-22T01:57:57.794Z,9.43
2018-04-22T01:58:57.784Z,9.42
2018-04-22T01:59:57.780Z,9.40
2018-04-22T02:00:57.783Z,9.47
2018-04-22T02:01:57.774Z,9.46
2018-04-22T02:02:57.769Z,9.39
2018-04-22T02:03:57.768Z,9.35
2018-04-22T02:04:57.762Z,9.35
2018-04-22T02:05:57.766Z,9.32
2018-04-22T02:06:57.755Z,9.35
2018-04-22T02:07:57.754Z,9.29
2018-04-22T02:08:57.753Z,9.36
2018-04-22T02:09:57.741Z,9.23
2018-04-22T02:10:57.744Z,9.23
2018-04-22T02:11:57.812Z,9.35
2018-04-22T02:12:57.737Z,9.28
2018-04-22T02:13:57.733Z,9.29
2018-04-22T02:14:57.729Z,9.26
2018-04-22T02:15:57.727Z,9.24
2018-04-22T02:16:57.727Z,9.24
2018-04-22T02:17:57.718Z,9.24
2018-04-22T02:18:57.718Z,9.17
2018-04-22T02:19:57.709Z,9.20
2018-04-22T02:20:57.707Z,9.23
2018-04-22T02:21:57.704Z,9.24
2018-04-22T02:22:57.702Z,9.24
2018-04-22T02:23:57.698Z,9.13
2018-04-22T02:24:57.694Z,9.15
2018-04-22T02:25:57.693Z,9.23
2018-04-22T02:26:57.689Z,9.15
2018-04-22T02:27:57.682Z,9.21
2018-04-22T02:28:57.683Z,9.21
2018-04-22T02:29:57.676Z,9.17
2018-04-22T02:30:57.673Z,9.10
2018-04-22T02:31:57.671Z,9.08
2018-04-22T02:32:57.667Z,9.10
2018-04-22T02:33:57.663Z,9.13
2018-04-22T02:34:57.659Z,9.13
2018-04-22T02:35:57.658Z,9.10
2018-04-22T02:36:57.649Z,9.11
2018-04-22T02:37:57.648Z,9.08
2018-04-22T02:38:57.647Z,9.05
2018-04-22T02:39:57.641Z,8.98
2018-04-22T02:40:57.637Z,8.98
2018-04-22T02:41:57.637Z,9.05
2018-04-22T02:42:57.633Z,8.99
2018-04-22T02:43:57.627Z,9.01
2018-04-22T02:44:57.622Z,8.95
2018-04-22T02:45:57.628Z,8.92
2018-04-22T02:46:57.618Z,8.92
2018-04-22T02:47:57.614Z,8.89
2018-04-22T02:48:57.609Z,8.89
2018-04-22T02:49:57.600Z,8.89
2018-04-22T02:50:57.601Z,8.86
2018-04-22T02:51:57.597Z,8.92
2018-04-22T02:52:57.592Z,8.89
2018-04-22T02:53:57.596Z,8.87
2018-04-22T02:54:57.583Z,8.92
2018-04-22T02:55:57.589Z,8.86
2018-04-22T02:56:57.576Z,8.91
2018-04-22T02:57:57.572Z,8.83
2018-04-22T02:58:57.578Z,8.74
2018-04-22T02:59:57.563Z,8.71
2018-04-22T03:00:57.565Z,8.66
2018-04-22T03:01:57.558Z,8.74
2018-04-22T03:02:57.552Z,8.66
2018-04-22T03:03:57.552Z,8.71
2018-04-22T03:04:57.544Z,8.74
2018-04-22T03:05:57.551Z,8.73
2018-04-22T03:06:57.541Z,8.73
2018-04-22T03:07:57.536Z,8.68
2018-04-22T03:08:57.530Z,8.74
2018-04-22T03:09:57.523Z,8.73
2018-04-22T03:10:57.523Z,8.66
2018-04-22T03:11:57.520Z,8.71
2018-04-22T03:12:57.516Z,8.70
2018-04-22T03:13:57.512Z,8.73
2018-04-22T03:14:57.509Z,8.73
2018-04-22T03:15:57.506Z,8.79
2018-04-22T03:16:57.501Z,8.70
2018-04-22T03:17:57.496Z,8.66
2018-04-22T03:18:57.493Z,8.74
2018-04-22T03:19:57.488Z,8.73
2018-04-22T03:20:57.484Z,8.68
2018-04-22T03:21:57.479Z,8.74
2018-04-22T03:22:57.479Z,8.77
2018-04-22T03:23:57.477Z,8.74
2018-04-22T03:24:57.470Z,8.70
2018-04-22T03:25:57.470Z,8.86
2018-04-22T03:26:57.462Z,8.76
2018-04-22T03:27:57.464Z,8.71
2018-04-22T03:28:57.450Z,8.73
2018-04-22T03:29:57.450Z,8.70
2018-04-22T03:30:57.451Z,8.73
2018-04-22T03:31:57.443Z,8.66
2018-04-22T03:32:57.440Z,8.73
2018-04-22T03:33:57.436Z,8.73
2018-04-22T03:34:57.436Z,8.71
2018-04-22T03:35:57.426Z,8.68
2018-04-22T03:36:57.423Z,8.66
2018-04-22T03:37:57.419Z,8.65
2018-04-22T03:38:57.412Z,8.71
2018-04-22T03:39:57.413Z,8.68
2018-04-22T03:40:57.408Z,8.71
2018-04-22T03:41:57.403Z,8.68
2018-04-22T03:42:57.402Z,8.68
2018-04-22T03:43:57.396Z,8.66
2018-04-22T03:44:57.392Z,8.65
2018-04-22T03:45:57.387Z,8.66
2018-04-22T03:46:57.386Z,8.63
2018-04-22T03:47:57.380Z,8.74
2018-04-22T03:48:57.377Z,8.61
2018-04-22T03:49:57.372Z,8.73
2018-04-22T03:50:57.367Z,8.73
2018-04-22T03:51:57.369Z,8.63
2018-04-22T03:52:57.357Z,8.62
2018-04-22T03:53:57.359Z,8.73
2018-04-22T03:54:57.355Z,8.68
2018-04-22T03:55:57.388Z,8.65
2018-04-22T03:56:57.345Z,8.65
2018-04-22T03:57:57.336Z,8.66
2018-04-22T03:58:57.340Z,8.63
2018-04-22T03:59:57.332Z,8.66
2018-04-22T04:00:57.328Z,8.68
2018-04-22T04:01:57.325Z,8.59
2018-04-22T04:02:57.319Z,8.70
2018-04-22T04:03:57.325Z,8.66
2018-04-22T04:04:57.313Z,8.74
2018-04-22T04:05:57.309Z,8.68
2018-04-22T04:06:57.304Z,8.66
2018-04-22T04:07:57.299Z,8.74
2018-04-22T04:08:57.297Z,8.66
2018-04-22T04:09:57.290Z,8.68
2018-04-22T04:10:57.289Z,8.73
2018-04-22T04:11:57.284Z,8.74
2018-04-22T04:12:57.284Z,8.74
2018-04-22T04:13:57.277Z,8.73
2018-04-22T04:14:57.283Z,8.79
2018-04-22T04:15:57.270Z,8.74
2018-04-22T04:16:57.261Z,8.71
2018-04-22T04:17:57.264Z,8.80
2018-04-22T04:18:57.258Z,8.81
2018-04-22T04:19:57.252Z,8.83
2018-04-22T04:20:57.247Z,8.94
2018-04-22T04:21:57.243Z,8.89
2018-04-22T04:22:57.247Z,8.86
2018-04-22T04:23:57.240Z,8.87
2018-04-22T04:24:57.235Z,8.92
2018-04-22T04:25:57.227Z,8.89
2018-04-22T04:26:57.221Z,9.01
2018-04-22T04:27:57.220Z,8.96
2018-04-22T04:28:57.216Z,8.96
2018-04-22T04:29:57.215Z,8.96
2018-04-22T04:30:57.209Z,9.11
2018-04-22T04:31:57.205Z,9.15
2018-04-22T04:32:57.201Z,9.18
2018-04-22T04:33:57.197Z,9.26
2018-04-22T04:34:57.194Z,9.35
2018-04-22T04:35:57.186Z,9.38
2018-04-22T04:36:57.183Z,9.31
2018-04-22T04:37:57.180Z,9.46
2018-04-22T04:38:57.181Z,9.48
2018-04-22T04:39:57.188Z,9.46
2018-04-22T04:40:57.169Z,9.39
2018-04-22T04:41:57.168Z,9.56
2018-04-22T04:42:57.162Z,9.61
2018-04-22T04:43:57.161Z,9.60
2018-04-22T04:44:57.154Z,9.72
2018-04-22T04:45:57.147Z,9.75
2018-04-22T04:46:57.147Z,9.78
2018-04-22T04:47:57.143Z,9.91
2018-04-22T04:48:57.140Z,9.97
2018-04-22T04:49:57.134Z,9.94
2018-04-22T04:50:57.128Z,10.09
2018-04-22T04:51:57.136Z,10.20
2018-04-22T04:52:57.123Z,10.29
2018-04-22T04:53:57.122Z,10.32
2018-04-22T04:54:57.122Z,10.42
2018-04-22T04:55:57.111Z,10.52
2018-04-22T04:56:57.113Z,10.76
2018-04-22T04:57:57.108Z,11.29
2018-04-22T04:58:57.105Z,11.78
2018-04-22T04:59:57.101Z,12.39
2018-04-22T05:00:57.098Z,12.93
2018-04-22T05:01:57.100Z,13.57
2018-04-22T05:02:57.091Z,14.07
2018-04-22T05:03:57.088Z,14.77
2018-04-22T05:04:57.086Z,15.27
2018-04-22T05:05:57.078Z,15.62
2018-04-22T05:06:57.078Z,16.02
2018-04-22T05:07:57.076Z,16.61
2018-04-22T05:08:57.076Z,16.76
2018-04-22T05:09:57.070Z,17.07
2018-04-22T05:10:57.064Z,17.36
2018-04-22T05:11:57.065Z,17.52
2018-04-22T05:12:57.069Z,17.51
2018-04-22T05:13:57.060Z,17.74
2018-04-22T05:14:57.063Z,17.66
2018-04-22T05:15:57.057Z,17.41
2018-04-22T05:16:57.049Z,17.44
2018-04-22T05:17:57.055Z,17.41
2018-04-22T05:18:57.056Z,17.14
2018-04-22T05:19:57.048Z,17.04
2018-04-22T05:20:57.044Z,16.86
2018-04-22T05:21:57.044Z,17.31
2018-04-22T05:22:57.045Z,17.31
2018-04-22T05:23:57.046Z,17.59
2018-04-22T05:24:57.052Z,17.00
2018-04-22T05:25:57.039Z,16.50
2018-04-22T05:26:57.041Z,16.08
2018-04-22T05:27:57.037Z,16.42
2018-04-22T05:28:57.035Z,17.11
2018-04-22T05:29:57.034Z,17.66
2018-04-22T05:30:57.035Z,17.96
2018-04-22T05:31:57.034Z,18.42
2018-04-22T05:32:57.031Z,18.30
2018-04-22T05:33:57.032Z,18.41
2018-04-22T05:34:57.032Z,18.14
2018-04-22T05:35:57.033Z,18.03
2018-04-22T05:36:57.027Z,18.52
2018-04-22T05:37:57.033Z,18.92
2018-04-22T05:38:57.030Z,19.25
2018-04-22T05:39:57.031Z,19.65
2018-04-22T05:40:57.027Z,19.56
2018-04-22T05:41:57.032Z,19.50
2018-04-22T05:42:57.028Z,19.66
2018-04-22T05:43:57.026Z,20.16
2018-04-22T05:44:57.027Z,20.17
2018-04-22T05:45:57.029Z,20.70
2018-04-22T05:46:57.022Z,20.16
2018-04-22T05:47:57.027Z,19.92
2018-04-22T05:48:57.029Z,20.24
2018-04-22T05:49:57.032Z,20.51
2018-04-22T05:50:57.030Z,20.79
2018-04-22T05:51:57.032Z,20.84
2018-04-22T05:52:57.031Z,21.10
2018-04-22T05:53:57.037Z,21.37
2018-04-22T05:54:57.034Z,21.56
2018-04-22T05:55:57.033Z,22.14
2018-04-22T05:56:57.036Z,21.98
2018-04-22T05:57:57.037Z,22.15
2018-04-22T05:58:57.039Z,22.35
2018-04-22T05:59:57.038Z,22.55
2018-04-22T06:00:57.035Z,22.68
2018-04-22T06:01:57.043Z,22.24
2018-04-22T06:02:57.043Z,22.65
2018-04-22T06:03:57.046Z,22.67
2018-04-22T06:04:57.045Z,22.67
2018-04-22T06:05:57.048Z,23.01
2018-04-22T06:06:57.049Z,23.31
2018-04-22T06:07:57.052Z,23.88
2018-04-22T06:08:57.056Z,24.16
2018-04-22T06:09:57.054Z,24.16
2018-04-22T06:10:57.059Z,24.28
2018-04-22T06:11:57.064Z,24.62
2018-04-22T06:12:57.062Z,24.95
2018-04-22T06:13:57.070Z,25.30
2018-04-22T06:14:57.076Z,25.45
2018-04-22T06:15:57.071Z,25.80
2018-04-22T06:16:57.074Z,25.55
2018-04-22T06:17:57.076Z,25.82
2018-04-22T06:18:57.079Z,25.30
2018-04-22T06:19:57.084Z,25.28
2018-04-22T06:20:57.086Z,25.28
2018-04-22T06:21:57.089Z,25.65
2018-04-22T06:22:57.104Z,25.73
2018-04-22T06:23:57.096Z,25.06
2018-04-22T06:24:57.095Z,24.60
2018-04-22T06:25:57.100Z,25.30
2018-04-22T06:26:57.105Z,25.55
2018-04-22T06:27:57.110Z,25.82
2018-04-22T06:28:57.115Z,25.92
2018-04-22T06:29:57.122Z,26.17
2018-04-22T06:30:57.125Z,26.17
2018-04-22T06:31:57.133Z,25.87
2018-04-22T06:32:57.130Z,25.03
2018-04-22T06:33:57.133Z,25.18
2018-04-22T06:34:57.182Z,25.55
2018-04-22T06:35:57.142Z,25.94
2018-04-22T06:36:57.148Z,25.67
2018-04-22T06:37:57.153Z,25.82
2018-04-22T06:38:57.156Z,25.99
2018-04-22T06:39:57.163Z,25.42
2018-04-22T06:40:57.170Z,24.98
2018-04-22T06:41:57.169Z,23.80
2018-04-22T06:42:57.184Z,24.09
2018-04-22T06:43:57.183Z,24.49
2018-04-22T06:44:57.182Z,24.73
2018-04-22T06:45:57.188Z,24.91
2018-04-22T06:46:57.194Z,24.53
2018-04-22T06:47:57.196Z,24.53
2018-04-22T06:48:57.199Z,23.93
2018-04-22T06:49:57.212Z,23.93
2018-04-22T06:50:57.214Z,24.32
2018-04-22T06:51:57.221Z,24.90
2018-04-22T06:52:57.215Z,24.96
2018-04-22T06:53:57.229Z,24.39
2018-04-22T06:54:57.229Z,24.46
2018-04-22T06:55:57.239Z,24.96
2018-04-22T06:56:57.239Z,25.21
2018-04-22T06:57:57.244Z,25.70
2018-04-22T06:58:57.250Z,25.18
2018-04-22T06:59:57.254Z,24.47
2018-04-22T07:00:57.258Z,24.91
2018-04-22T07:01:57.264Z,24.99
2018-04-22T07:02:57.270Z,24.76
2018-04-22T07:03:57.278Z,24.88
2018-04-22T07:04:57.281Z,24.99
2018-04-22T07:05:57.288Z,25.42
2018-04-22T07:06:57.297Z,25.02
2018-04-22T07:07:57.298Z,25.20
2018-04-22T07:08:57.309Z,24.30
2018-04-22T07:09:57.309Z,25.13
2018-04-22T07:10:57.313Z,25.83
2018-04-22T07:11:57.324Z,26.30
2018-04-22T07:12:57.324Z,26.89
2018-04-22T07:13:57.333Z,26.99
2018-04-22T07:14:57.337Z,26.91
2018-04-22T07:15:57.343Z,27.10
2018-04-22T07:16:57.351Z,27.37
2018-04-22T07:17:57.356Z,27.41
2018-04-22T07:18:57.358Z,27.99
2018-04-22T07:19:57.366Z,28.59
2018-04-22T07:20:57.368Z,28.77
2018-04-22T07:21:57.374Z,28.93
2018-04-22T07:22:57.381Z,28.55
2018-04-22T07:23:57.441Z,28.64
2018-04-22T07:24:57.399Z,27.47
2018-04-22T07:25:57.402Z,26.55
2018-04-22T07:26:57.407Z,26.54
2018-04-22T07:27:57.416Z,26.84
2018-04-22T07:28:57.421Z,26.67
2018-04-22T07:29:57.427Z,26.33
2018-04-22T07:30:57.434Z,26.21
2018-04-22T07:31:57.443Z,26.50
2018-04-22T07:32:57.449Z,26.95
2018-04-22T07:33:57.457Z,27.31
2018-04-22T07:34:57.464Z,27.19
2018-04-22T07:35:57.470Z,26.95
2018-04-22T07:36:57.482Z,26.81
2018-04-22T07:37:57.485Z,27.40
2018-04-22T07:38:57.491Z,27.81
2018-04-22T07:39:57.503Z,28.06
2018-04-22T07:40:57.504Z,28.34
2018-04-22T07:41:57.518Z,28.70
2018-04-22T07:42:57.528Z,28.51
2018-04-22T07:43:57.531Z,28.73
2018-04-22T07:44:57.537Z,28.48
2018-04-22T07:45:57.545Z,27.54
2018-04-22T07:46:57.553Z,27.22
2018-04-22T07:47:57.565Z,27.85
2018-04-22T07:48:57.573Z,28.31
2018-04-22T07:49:57.578Z,28.61
2018-04-22T07:50:57.585Z,28.51
2018-04-22T07:51:57.594Z,28.83
2018-04-22T07:52:57.600Z,28.59
2018-04-22T07:53:57.610Z,28.55
2018-04-22T07:54:57.618Z,28.61
2018-04-22T07:55:57.628Z,28.66
2018-04-22T07:56:57.640Z,28.34
2018-04-22T07:57:57.643Z,27.90
2018-04-22T07:58:57.649Z,27.59
2018-04-22T07:59:57.656Z,27.17
2018-04-22T08:00:57.663Z,26.21
2018-04-22T08:01:57.675Z,25.72
2018-04-22T08:02:57.683Z,25.51
2018-04-22T08:03:57.688Z,25.17
2018-04-22T08:04:57.695Z,24.68
2018-04-22T08:05:57.707Z,23.90
2018-04-22T08:06:57.711Z,23.20
2018-04-22T08:07:57.716Z,22.67
2018-04-22T08:08:57.722Z,22.57
2018-04-22T08:09:57.731Z,22.68
2018-04-22T08:10:57.741Z,22.65
2018-04-22T08:11:57.744Z,23.17
2018-04-22T08:12:57.749Z,23.53
2018-04-22T08:13:57.763Z,23.12
2018-04-22T08:14:57.762Z,23.63
2018-04-22T08:15:57.774Z,23.79
2018-04-22T08:16:57.775Z,23.17
2018-04-22T08:17:57.780Z,22.86
2018-04-22T08:18:57.787Z,21.71
2018-04-22T08:19:57.798Z,21.42
2018-04-22T08:20:57.801Z,20.73
2018-04-22T08:21:57.806Z,20.87
2018-04-22T08:22:57.812Z,21.37
2018-04-22T08:23:57.818Z,22.30
2018-04-22T08:24:57.823Z,23.47
2018-04-22T08:25:57.828Z,24.76
2018-04-22T08:26:57.837Z,24.91
2018-04-22T08:27:57.841Z,24.35
2018-04-22T08:28:57.846Z,23.83
2018-04-22T08:29:57.853Z,23.50
2018-04-22T08:30:57.860Z,23.25
2018-04-22T08:31:57.869Z,22.98
2018-04-22T08:32:57.872Z,22.70
2018-04-22T08:33:57.914Z,22.21
2018-04-22T08:34:57.882Z,21.86
2018-04-22T08:35:57.889Z,21.72
2018-04-22T08:36:57.893Z,21.74
2018-04-22T08:37:57.901Z,21.79
2018-04-22T08:38:57.907Z,21.82
2018-04-22T08:39:57.909Z,21.64
2018-04-22T08:40:57.914Z,21.67
2018-04-22T08:41:57.918Z,21.42
2018-04-22T08:42:57.923Z,21.43
2018-04-22T08:43:57.935Z,21.12
2018-04-22T08:44:57.932Z,21.14
2018-04-22T08:45:57.938Z,21.25
2018-04-22T08:46:57.944Z,21.27
2018-04-22T08:47:57.948Z,21.28
2018-04-22T08:48:57.953Z,21.04
2018-04-22T08:49:57.959Z,20.72
2018-04-22T08:50:57.962Z,20.61
2018-04-22T08:51:57.965Z,20.69
2018-04-22T08:52:57.967Z,20.41
2018-04-22T08:53:57.977Z,20.16
2018-04-22T08:54:57.979Z,20.24
2018-04-22T08:55:57.982Z,20.24
2018-04-22T08:56:57.995Z,20.16
2018-04-22T08:57:57.990Z,20.29
2018-04-22T08:58:58.002Z,20.41
2018-04-22T08:59:58.001Z,20.58
2018-04-22T09:00:58.011Z,20.73
2018-04-22T09:01:58.011Z,21.12
2018-04-22T09:02:58.009Z,21.56
2018-04-22T09:03:58.014Z,21.68
2018-04-22T09:04:58.019Z,21.75
2018-04-22T09:05:58.024Z,21.61
2018-04-22T09:06:58.025Z,21.69
2018-04-22T09:07:58.031Z,21.67
2018-04-22T09:08:58.041Z,21.68
2018-04-22T09:09:58.035Z,21.52
2018-04-22T09:10:58.040Z,21.38
2018-04-22T09:11:58.043Z,21.34
2018-04-22T09:12:58.045Z,21.42
2018-04-22T09:13:58.048Z,21.40
2018-04-22T09:14:58.052Z,21.38
2018-04-22T09:15:58.057Z,21.09
2018-04-22T09:16:58.058Z,21.22
2018-04-22T09:17:58.072Z,21.19
2018-04-22T09:18:58.071Z,21.27
2018-04-22T09:19:58.066Z,21.24
2018-04-22T09:20:58.081Z,21.31
2018-04-22T09:21:58.096Z,21.24
2018-04-22T09:22:58.078Z,21.34
2018-04-22T09:23:58.085Z,21.38
2018-04-22T09:24:58.087Z,21.47
2018-04-22T09:25:58.089Z,21.59
2018-04-22T09:26:58.098Z,21.35
2018-04-22T09:27:58.145Z,21.46
2018-04-22T09:28:58.099Z,21.40
2018-04-22T09:29:58.104Z,21.46
2018-04-22T09:30:58.105Z,21.61
2018-04-22T09:31:58.111Z,21.49
2018-04-22T09:32:58.113Z,21.53
2018-04-22T09:33:58.117Z,21.50
2018-04-22T09:34:58.122Z,21.38
2018-04-22T09:35:58.121Z,21.32
2018-04-22T09:36:58.126Z,21.37
2018-04-22T09:37:58.131Z,21.47
2018-04-22T09:38:58.137Z,21.46
2018-04-22T09:39:58.145Z,21.44
2018-04-22T09:40:58.140Z,21.56
2018-04-22T09:41:58.145Z,21.59
2018-04-22T09:42:58.142Z,21.49
2018-04-22T09:43:58.150Z,21.43
2018-04-22T09:44:58.155Z,21.42
2018-04-22T09:45:58.170Z,21.47
2018-04-22T09:46:58.163Z,21.53
2018-04-22T09:47:58.166Z,21.59
2018-04-22T09:48:58.172Z,21.56
2018-04-22T09:49:58.226Z,21.61
2018-04-22T09:50:58.171Z,21.64
2018-04-22T09:51:58.175Z,21.68
2018-04-22T09:52:58.180Z,21.37
2018-04-22T09:53:58.184Z,21.13
2018-04-22T09:54:58.195Z,21.14
2018-04-22T09:55:58.190Z,21.31
2018-04-22T09:56:58.193Z,21.43
2018-04-22T09:57:58.197Z,21.40
2018-04-22T09:58:58.199Z,21.25
2018-04-22T09:59:58.204Z,21.21
2018-04-22T10:00:58.206Z,21.46
2018-04-22T10:01:58.236Z,21.34
2018-04-22T10:02:58.218Z,21.46
2018-04-22T10:03:58.226Z,21.40
2018-04-22T10:04:58.288Z,21.58
2018-04-22T10:05:58.221Z,21.61
2018-04-22T10:06:58.226Z,21.59
2018-04-22T10:07:58.232Z,21.46
2018-04-22T10:08:58.240Z,21.56
2018-04-22T10:09:58.247Z,21.64
2018-04-22T10:10:58.303Z,21.69
2018-04-22T10:11:58.246Z,21.86
2018-04-22T10:12:58.245Z,21.84
2018-04-22T10:13:58.252Z,21.98
2018-04-22T10:14:58.253Z,22.00
2018-04-22T10:15:58.266Z,22.10
2018-04-22T10:16:58.273Z,21.96
2018-04-22T10:17:58.264Z,22.12
2018-04-22T10:18:58.271Z,22.20
2018-04-22T10:19:58.271Z,22.30
2018-04-22T10:20:58.269Z,22.40
2018-04-22T10:21:58.281Z,22.49
2018-04-22T10:22:58.279Z,22.49
2018-04-22T10:23:58.284Z,22.46
2018-04-22T10:24:58.288Z,22.49
2018-04-22T10:25:58.291Z,22.65
2018-04-22T10:26:58.297Z,22.55
2018-04-22T10:27:58.298Z,22.52
2018-04-22T10:28:58.300Z,22.54
2018-04-22T10:29:58.310Z,22.55
2018-04-22T10:30:58.309Z,22.55
2018-04-22T10:31:58.318Z,22.54
2018-04-22T10:32:58.316Z,22.58
2018-04-22T10:33:58.319Z,22.51
2018-04-22T10:34:58.329Z,22.40
2018-04-22T10:35:58.331Z,22.39
2018-04-22T10:36:58.328Z,22.37
2018-04-22T10:37:58.334Z,22.40
2018-04-22T10:38:58.344Z,22.51
2018-04-22T10:39:58.345Z,22.54
2018-04-22T10:40:58.351Z,22.58
2018-04-22T10:41:58.403Z,22.65
2018-04-22T10:42:58.356Z,22.75
2018-04-22T10:43:58.361Z,22.73
2018-04-22T10:44:58.359Z,22.67
2018-04-22T10:45:58.363Z,22.75
2018-04-22T10:46:58.368Z,22.82
2018-04-22T10:47:58.377Z,22.83
2018-04-22T10:48:58.376Z,22.91
2018-04-22T10:49:58.386Z,22.97
2018-04-22T10:50:58.405Z,23.00
2018-04-22T10:51:58.383Z,22.91
2018-04-22T10:52:58.393Z,22.79
2018-04-22T10:53:58.390Z,22.70
2018-04-22T10:54:58.397Z,22.73
2018-04-22T10:55:58.405Z,22.62
2018-04-22T10:56:58.406Z,22.70
2018-04-22T10:57:58.518Z,22.73
2018-04-22T10:58:58.416Z,22.77
2018-04-22T10:59:58.417Z,22.72
2018-04-22T11:00:58.422Z,22.88
2018-04-22T11:01:58.469Z,22.94
2018-04-22T11:02:58.430Z,23.10
2018-04-22T11:03:58.431Z,23.10
2018-04-22T11:04:58.441Z,23.15
2018-04-22T11:05:58.440Z,23.09
2018-04-22T11:06:58.442Z,23.20
2018-04-22T11:07:58.450Z,23.10
2018-04-22T11:08:58.452Z,23.00
2018-04-22T11:09:58.466Z,23.16
2018-04-22T11:10:58.459Z,23.16
2018-04-22T11:11:58.464Z,22.91
2018-04-22T11:12:58.466Z,22.88
2018-04-22T11:13:58.470Z,22.95
2018-04-22T11:14:58.480Z,23.04
2018-04-22T11:15:58.495Z,23.09
2018-04-22T11:16:58.490Z,23.20
2018-04-22T11:17:58.489Z,23.22
2018-04-22T11:18:58.489Z,23.36
2018-04-22T11:19:58.496Z,23.31
2018-04-22T11:20:58.498Z,23.19
2018-04-22T11:21:58.501Z,23.05
2018-04-22T11:22:58.508Z,22.88
2018-04-22T11:23:58.517Z,22.95
2018-04-22T11:24:58.513Z,22.92
2018-04-22T11:25:58.516Z,23.01
2018-04-22T11:26:58.530Z,23.07
2018-04-22T11:27:58.530Z,23.17
2018-04-22T11:28:58.540Z,23.16
2018-04-22T11:29:58.528Z,23.28
2018-04-22T11:30:58.533Z,23.40
2018-04-22T11:31:58.539Z,23.46
2018-04-22T11:32:58.545Z,23.40
2018-04-22T11:33:58.554Z,23.47
2018-04-22T11:34:58.553Z,23.55
2018-04-22T11:35:58.556Z,23.55
2018-04-22T11:36:58.560Z,23.51
2018-04-22T11:37:58.607Z,23.48
2018-04-22T11:38:58.568Z,23.28
2018-04-22T11:39:58.574Z,23.23
2018-04-22T11:40:58.577Z,23.23
2018-04-22T11:41:58.626Z,23.10
2018-04-22T11:42:58.629Z,23.10
2018-04-22T11:43:58.589Z,23.09
2018-04-22T11:44:58.593Z,23.25
2018-04-22T11:45:58.604Z,23.04
2018-04-22T11:46:58.602Z,23.22
2018-04-22T11:47:58.605Z,23.20
2018-04-22T11:49:01.179Z,23.22
2018-04-22T11:49:58.613Z,23.39
2018-04-22T11:50:58.663Z,23.40
2018-04-22T11:51:58.624Z,23.43
2018-04-22T11:52:58.624Z,23.55
2018-04-22T11:53:58.634Z,23.53
2018-04-22T11:54:58.631Z,23.73
2018-04-22T11:55:58.650Z,23.63
2018-04-22T11:56:58.641Z,23.80
2018-04-22T11:57:58.644Z,23.72
2018-04-22T11:58:58.648Z,23.60
2018-04-22T11:59:58.725Z,23.54
2018-04-22T12:00:58.658Z,23.58
2018-04-22T12:01:58.661Z,23.68
2018-04-22T12:02:58.665Z,23.53
2018-04-22T12:03:58.671Z,23.54
2018-04-22T12:04:58.678Z,23.66
2018-04-22T12:05:58.677Z,23.69
2018-04-22T12:06:58.682Z,23.66
2018-04-22T12:07:58.685Z,23.65
2018-04-22T12:08:58.686Z,23.53
2018-04-22T12:09:58.703Z,23.42
2018-04-22T12:10:58.697Z,23.48
2018-04-22T12:11:58.705Z,23.40
2018-04-22T12:12:58.704Z,23.39
2018-04-22T12:13:58.710Z,23.51
2018-04-22T12:14:58.710Z,23.33
2018-04-22T12:15:58.718Z,23.25
2018-04-22T12:16:58.718Z,23.48
2018-04-22T12:17:58.724Z,23.58
2018-04-22T12:18:58.734Z,23.66
2018-04-22T12:19:58.735Z,23.76
2018-04-22T12:20:58.742Z,23.91
2018-04-22T12:21:58.751Z,23.97
2018-04-22T12:22:58.749Z,24.02
2018-04-22T12:23:58.752Z,24.08
2018-04-22T12:24:58.755Z,24.10
2018-04-22T12:25:58.759Z,24.09
2018-04-22T12:26:58.767Z,24.20
2018-04-22T12:27:58.769Z,24.27
2018-04-22T12:28:58.771Z,24.20
2018-04-22T12:29:58.776Z,24.09
2018-04-22T12:30:58.779Z,24.09
2018-04-22T12:31:58.786Z,24.15
2018-04-22T12:32:58.793Z,24.05
2018-04-22T12:33:58.800Z,24.24
2018-04-22T12:34:58.798Z,24.35
2018-04-22T12:35:58.813Z,24.32
2018-04-22T12:36:58.809Z,24.32
2018-04-22T12:37:58.811Z,24.40
2018-04-22T12:38:58.819Z,24.46
2018-04-22T12:39:58.820Z,24.47
2018-04-22T12:40:58.826Z,24.42
2018-04-22T12:41:58.830Z,24.32
2018-04-22T12:42:58.836Z,24.42
2018-04-22T12:43:58.838Z,24.37
2018-04-22T12:44:58.843Z,24.21
2018-04-22T12:45:58.850Z,23.76
2018-04-22T12:46:58.852Z,23.83
2018-04-22T12:47:58.855Z,23.78
2018-04-22T12:48:58.861Z,23.91
2018-04-22T12:49:58.878Z,24.09
2018-04-22T12:50:58.867Z,24.05
2018-04-22T12:51:58.873Z,24.12
2018-04-22T12:52:58.897Z,24.15
2018-04-22T12:53:58.883Z,24.28
2018-04-22T12:54:58.887Z,24.35
2018-04-22T12:55:58.893Z,24.28
2018-04-22T12:56:58.897Z,24.31
2018-04-22T12:57:58.900Z,24.30
2018-04-22T12:58:58.907Z,24.28
2018-04-22T12:59:58.911Z,24.27